createdAt,value
2023-01-19T00:04:07.740Z,98197.19
2023-01-19T00:08:23.950Z,98194.09
2023-01-19T00:12:40.138Z,98191.69
2023-01-19T00:16:56.287Z,98183.72
2023-01-19T00:21:14.914Z,98172.78
2023-01-19T00:25:31.117Z,98158.88
2023-01-19T00:29:47.232Z,98165.22
2023-01-19T00:34:04.604Z,98168.62
2023-01-19T00:38:21.207Z,98168.56
2023-01-19T00:42:48.538Z,98175.00
2023-01-19T00:47:05.931Z,98169.88
2023-01-19T00:51:22.113Z,98178.19
2023-01-19T00:55:38.335Z,98179.72
2023-01-19T00:59:54.472Z,98176.34
2023-01-19T01:04:12.430Z,98185.22
2023-01-19T01:08:28.639Z,98191.50
2023-01-19T01:12:55.583Z,98179.59
2023-01-19T01:17:15.106Z,98174.78
2023-01-19T01:21:31.432Z,98178.94
2023-01-19T01:25:47.962Z,98177.41
2023-01-19T01:30:04.442Z,98175.09
2023-01-19T01:34:20.734Z,98176.25
2023-01-19T01:38:37.018Z,98173.25
2023-01-19T01:42:53.388Z,98173.31
2023-01-19T01:47:09.613Z,98177.13
2023-01-19T01:51:29.017Z,98175.12
2023-01-19T01:55:50.227Z,98182.84
2023-01-19T02:00:07.563Z,98203.66
2023-01-19T02:04:24.097Z,98213.62
2023-01-19T02:09:11.008Z,98202.28
2023-01-19T02:13:29.005Z,98220.34
2023-01-19T02:17:45.369Z,98229.84
2023-01-19T02:22:27.914Z,98234.47
2023-01-19T02:26:47.222Z,98229.22
2023-01-19T02:31:03.544Z,98224.97
2023-01-19T02:35:20.659Z,98191.16
2023-01-19T02:40:03.060Z,98194.75
2023-01-19T02:44:21.171Z,98203.56
2023-01-19T02:48:37.406Z,98231.53
2023-01-19T02:52:56.255Z,98211.19
2023-01-19T02:57:29.397Z,98202.06
2023-01-19T03:02:13.390Z,98199.63
2023-01-19T03:06:47.314Z,98211.22
2023-01-19T03:11:05.245Z,98212.16
2023-01-19T03:15:41.509Z,98221.38
2023-01-19T03:19:58.203Z,98222.75
2023-01-19T03:24:16.138Z,98225.00
2023-01-19T03:28:33.655Z,98241.06
2023-01-19T03:33:04.985Z,98251.03
2023-01-19T03:37:22.782Z,98284.00
2023-01-19T03:41:40.493Z,98259.69
2023-01-19T03:45:57.447Z,98213.78
2023-01-19T03:50:22.246Z,98200.00
2023-01-19T03:54:38.752Z,98193.22
2023-01-19T03:58:56.280Z,98185.38
2023-01-19T04:03:18.198Z,98176.78
2023-01-19T04:07:34.455Z,98197.88
2023-01-19T04:11:50.941Z,98225.37
2023-01-19T04:16:07.693Z,98215.66
2023-01-19T04:20:23.923Z,98217.00
2023-01-19T04:24:40.081Z,98224.63
2023-01-19T04:28:56.345Z,98230.13
2023-01-19T04:33:12.622Z,98231.50
2023-01-19T04:37:28.980Z,98226.41
2023-01-19T04:41:45.165Z,98210.31
2023-01-19T04:46:01.435Z,98194.91
2023-01-19T04:50:17.824Z,98176.00
2023-01-19T04:54:34.238Z,98170.34
2023-01-19T04:58:50.465Z,98179.00
2023-01-19T05:03:06.873Z,98158.53
2023-01-19T05:07:23.196Z,98167.66
2023-01-19T05:11:39.528Z,98199.50
2023-01-19T05:15:55.836Z,98207.34
2023-01-19T05:20:15.832Z,98201.69
2023-01-19T05:24:33.027Z,98180.09
2023-01-19T05:28:50.575Z,98194.13
2023-01-19T05:33:06.900Z,98198.94
2023-01-19T05:37:23.174Z,98222.72
2023-01-19T05:41:39.536Z,98240.25
2023-01-19T05:45:55.788Z,98252.38
2023-01-19T05:50:12.254Z,98251.88
2023-01-19T05:54:29.533Z,98228.66
2023-01-19T05:58:45.769Z,98233.50
2023-01-19T06:03:02.966Z,98250.25
2023-01-19T06:07:19.425Z,98248.87
2023-01-19T06:11:35.659Z,98240.53
2023-01-19T06:15:58.637Z,98207.03
2023-01-19T06:20:15.128Z,98190.56
2023-01-19T06:24:31.346Z,98203.25
2023-01-19T06:28:48.892Z,98213.53
2023-01-19T06:33:05.076Z,98203.22
2023-01-19T06:37:21.403Z,98191.34
2023-01-19T06:41:38.593Z,98180.59
2023-01-19T06:45:56.380Z,98173.25
2023-01-19T06:50:12.845Z,98166.44
2023-01-19T06:54:29.063Z,98203.75
2023-01-19T06:58:47.062Z,98227.50
2023-01-19T07:03:03.768Z,98223.25
2023-01-19T07:07:20.183Z,98236.69
2023-01-19T07:11:36.881Z,98227.03
2023-01-19T07:15:53.142Z,98202.16
2023-01-19T07:20:13.264Z,98196.75
2023-01-19T07:24:30.873Z,98199.66
2023-01-19T07:28:50.094Z,98197.44
2023-01-19T07:33:06.323Z,98205.81
2023-01-19T07:37:22.618Z,98213.94
2023-01-19T07:41:39.047Z,98246.91
2023-01-19T07:46:02.119Z,98225.63
2023-01-19T07:50:21.520Z,98242.06
2023-01-19T07:54:38.229Z,98245.75
2023-01-19T07:58:54.652Z,98233.56
2023-01-19T08:03:11.098Z,98236.56
2023-01-19T08:07:27.317Z,98245.16
2023-01-19T08:11:43.576Z,98240.81
2023-01-19T08:16:00.039Z,98242.94
2023-01-19T08:20:16.408Z,98233.88
2023-01-19T08:24:32.639Z,98233.66
2023-01-19T08:28:49.035Z,98243.97
2023-01-19T08:33:08.356Z,98239.22
2023-01-19T08:37:25.089Z,98233.25
2023-01-19T08:41:41.628Z,98229.38
2023-01-19T08:45:57.971Z,98228.91
2023-01-19T08:50:14.248Z,98231.69
2023-01-19T08:54:30.510Z,98218.63
2023-01-19T08:58:56.216Z,98218.63
2023-01-19T09:03:21.868Z,98234.94
2023-01-19T09:07:38.544Z,98237.53
2023-01-19T09:11:55.981Z,98244.22
2023-01-19T09:16:13.535Z,98234.97
2023-01-19T09:20:31.490Z,98228.75
2023-01-19T09:24:49.253Z,98226.06
2023-01-19T09:29:07.543Z,98224.28
2023-01-19T09:33:24.970Z,98231.31
2023-01-19T09:37:41.301Z,98247.72
2023-01-19T09:42:26.365Z,98230.91
2023-01-19T09:46:44.958Z,98236.59
2023-01-19T09:51:05.161Z,98227.13
2023-01-19T09:55:27.795Z,98224.84
2023-01-19T09:59:47.964Z,98232.69
2023-01-19T10:04:28.488Z,98247.87
2023-01-19T10:09:05.480Z,98230.91
2023-01-19T10:13:45.270Z,98212.69
2023-01-19T10:18:48.135Z,98216.47
2023-01-19T10:23:16.535Z,98213.69
2023-01-19T10:27:36.483Z,98230.09
2023-01-19T10:32:17.014Z,98225.78
2023-01-19T10:36:38.277Z,98227.41
2023-01-19T10:40:54.549Z,98228.53
2023-01-19T10:45:21.858Z,98234.41
2023-01-19T10:49:42.866Z,98229.25
2023-01-19T10:54:02.334Z,98237.69
2023-01-19T10:58:30.413Z,98242.16
2023-01-19T11:02:51.651Z,98230.22
2023-01-19T11:07:31.786Z,98242.00
2023-01-19T11:11:52.738Z,98245.31
2023-01-19T11:16:29.319Z,98242.09
2023-01-19T11:20:52.762Z,98239.69
2023-01-19T11:25:20.627Z,98251.09
2023-01-19T11:29:39.095Z,98250.41
2023-01-19T11:34:01.252Z,98257.72
2023-01-19T11:38:22.606Z,98258.31
2023-01-19T11:42:38.875Z,98260.22
2023-01-19T11:47:00.291Z,98255.94
2023-01-19T11:51:20.340Z,98258.41
2023-01-19T11:55:51.179Z,98264.16
2023-01-19T12:00:22.426Z,98255.41
2023-01-19T12:04:42.667Z,98263.84
2023-01-19T12:09:28.254Z,98270.44
2023-01-19T12:13:45.586Z,98270.44
2023-01-19T12:18:03.600Z,98269.91
2023-01-19T12:22:21.193Z,98277.03
2023-01-19T12:26:49.274Z,98279.63
2023-01-19T12:31:07.771Z,98297.72
2023-01-19T12:36:05.191Z,98299.91
2023-01-19T12:40:31.540Z,98298.75
2023-01-19T12:44:50.329Z,98299.03
2023-01-19T12:49:11.125Z,98300.69
2023-01-19T12:53:27.472Z,98309.06
2023-01-19T12:58:00.395Z,98318.69
2023-01-19T13:02:28.935Z,98323.38
2023-01-19T13:06:48.405Z,98332.84
2023-01-19T13:11:10.533Z,98334.47
2023-01-19T13:15:36.743Z,98336.34
2023-01-19T13:20:05.503Z,98346.09
2023-01-19T13:24:23.449Z,98351.41
2023-01-19T13:28:50.088Z,98356.91
2023-01-19T13:33:22.659Z,98375.44
2023-01-19T13:37:43.906Z,98376.75
2023-01-19T13:42:15.873Z,98389.03
2023-01-19T13:46:33.858Z,98398.50
2023-01-19T13:51:06.920Z,98400.84
2023-01-19T13:55:24.186Z,98413.59
2023-01-19T13:59:40.419Z,98426.25
2023-01-19T14:03:56.805Z,98429.91
2023-01-19T14:08:15.289Z,98451.06
2023-01-19T14:12:38.963Z,98458.31
2023-01-19T14:16:58.105Z,98468.81
2023-01-19T14:21:17.908Z,98471.81
2023-01-19T14:25:39.747Z,98475.63
2023-01-19T14:30:14.307Z,98480.66
2023-01-19T14:34:32.744Z,98478.69
2023-01-19T14:38:50.253Z,98481.47
2023-01-19T14:43:10.922Z,98480.34
2023-01-19T14:47:46.969Z,98470.22
2023-01-19T14:52:20.825Z,98480.06
2023-01-19T14:56:39.535Z,98483.78
2023-01-19T15:00:58.625Z,98502.59
2023-01-19T15:05:15.754Z,98522.94
2023-01-19T15:09:32.342Z,98519.66
2023-01-19T15:13:51.470Z,98522.34
2023-01-19T15:18:12.583Z,98532.41
2023-01-19T15:22:30.245Z,98519.41
2023-01-19T15:26:46.972Z,98532.50
2023-01-19T15:31:03.809Z,98541.47
2023-01-19T15:35:26.540Z,98542.63
2023-01-19T15:39:42.879Z,98540.53
2023-01-19T15:44:01.884Z,98552.03
2023-01-19T15:48:20.314Z,98567.37
2023-01-19T15:52:36.701Z,98576.72
2023-01-19T15:56:53.208Z,98594.03
2023-01-19T16:01:13.975Z,98591.37
2023-01-19T16:05:42.602Z,98570.94
2023-01-19T16:09:59.442Z,98581.66
2023-01-19T16:14:17.473Z,98601.03
2023-01-19T16:18:36.231Z,98599.03
2023-01-19T16:22:54.972Z,98608.59
2023-01-19T16:27:12.880Z,98620.81
2023-01-19T16:31:29.568Z,98637.22
2023-01-19T16:35:46.035Z,98636.81
2023-01-19T16:40:02.601Z,98645.00
2023-01-19T16:44:20.095Z,98657.75
2023-01-19T16:48:36.497Z,98658.22
2023-01-19T16:53:01.603Z,98694.91
2023-01-19T16:57:18.625Z,98708.53
2023-01-19T17:01:35.340Z,98739.19
2023-01-19T17:05:52.095Z,98738.69
2023-01-19T17:10:09.842Z,98740.62
2023-01-19T17:14:26.320Z,98745.97
2023-01-19T17:18:43.030Z,98754.19
2023-01-19T17:22:59.429Z,98753.38
2023-01-19T17:27:16.495Z,98772.88
2023-01-19T17:31:36.053Z,98775.44
2023-01-19T17:35:52.753Z,98785.47
2023-01-19T17:40:10.041Z,98791.22
2023-01-19T17:44:26.574Z,98790.47
2023-01-19T17:48:43.305Z,98791.78
2023-01-19T17:53:00.068Z,98797.00
2023-01-19T17:57:16.587Z,98795.13
2023-01-19T18:01:35.902Z,98789.81
2023-01-19T18:05:56.272Z,98783.03
2023-01-19T18:10:13.186Z,98781.81
2023-01-19T18:14:29.776Z,98797.03
2023-01-19T18:18:46.639Z,98796.84
2023-01-19T18:23:03.044Z,98801.97
2023-01-19T18:27:20.558Z,98807.25
2023-01-19T18:31:37.679Z,98816.75
2023-01-19T18:35:54.188Z,98823.00
2023-01-19T18:40:11.582Z,98831.19
2023-01-19T18:44:28.060Z,98830.34
2023-01-19T18:48:44.632Z,98827.59
2023-01-19T18:53:00.977Z,98832.91
2023-01-19T18:57:18.157Z,98825.94
2023-01-19T19:01:35.674Z,98831.66
2023-01-19T19:05:52.621Z,98836.72
2023-01-19T19:10:09.901Z,98836.75
2023-01-19T19:14:26.266Z,98835.87
2023-01-19T19:18:42.527Z,98846.25
2023-01-19T19:22:58.704Z,98857.47
2023-01-19T19:27:14.978Z,98862.47
2023-01-19T19:31:32.046Z,98866.69
2023-01-19T19:35:48.405Z,98860.84
2023-01-19T19:40:04.861Z,98871.47
2023-01-19T19:44:21.120Z,98877.53
2023-01-19T19:48:39.226Z,98888.69
2023-01-19T19:52:58.956Z,98894.59
2023-01-19T19:57:15.115Z,98910.44
2023-01-19T20:01:33.765Z,98904.00
2023-01-19T20:05:50.471Z,98907.41
2023-01-19T20:10:08.621Z,98915.62
2023-01-19T20:14:25.007Z,98912.78
2023-01-19T20:18:42.932Z,98914.69
2023-01-19T20:23:00.439Z,98919.13
2023-01-19T20:27:16.802Z,98926.56
2023-01-19T20:31:35.523Z,98927.75
2023-01-19T20:35:52.215Z,98928.78
2023-01-19T20:40:09.719Z,98919.69
2023-01-19T20:44:29.274Z,98926.41
2023-01-19T20:48:52.046Z,98918.22
2023-01-19T20:53:08.244Z,98929.47
2023-01-19T20:57:24.539Z,98931.59
2023-01-19T21:01:41.462Z,98933.06
2023-01-19T21:05:59.889Z,98933.50
2023-01-19T21:10:17.760Z,98928.09
2023-01-19T21:14:33.945Z,98921.59
2023-01-19T21:18:50.263Z,98924.19
2023-01-19T21:23:06.455Z,98923.06
2023-01-19T21:27:24.897Z,98917.13
2023-01-19T21:31:42.005Z,98923.12
2023-01-19T21:35:58.481Z,98934.03
2023-01-19T21:40:14.877Z,98934.03
2023-01-19T21:44:31.098Z,98944.06
2023-01-19T21:48:47.934Z,98936.03
2023-01-19T21:53:06.265Z,98952.81
2023-01-19T21:57:22.485Z,98946.47
2023-01-19T22:01:38.893Z,98948.31
2023-01-19T22:05:56.204Z,98947.88
2023-01-19T22:10:12.833Z,98967.66
2023-01-19T22:14:29.224Z,98969.78
2023-01-19T22:18:50.067Z,98977.47
2023-01-19T22:23:06.309Z,99005.59
2023-01-19T22:27:22.494Z,99023.72
2023-01-19T22:31:41.010Z,99029.59
2023-01-19T22:36:17.122Z,99004.84
2023-01-19T22:40:33.549Z,99011.84
2023-01-19T22:44:50.004Z,99003.00
2023-01-19T22:49:07.960Z,99004.47
2023-01-19T22:53:24.161Z,99012.03
2023-01-19T22:57:40.475Z,99018.53
2023-01-19T23:01:56.874Z,99012.88
2023-01-19T23:06:15.531Z,99000.97
2023-01-19T23:10:31.736Z,99002.72
2023-01-19T23:14:47.981Z,99008.47
2023-01-19T23:19:04.685Z,98998.72
2023-01-19T23:23:21.072Z,98992.91
2023-01-19T23:27:37.380Z,98985.22
2023-01-19T23:31:55.045Z,98982.59
2023-01-19T23:36:15.015Z,98968.38
2023-01-19T23:40:31.253Z,98962.09
2023-01-19T23:44:47.485Z,98969.69
2023-01-19T23:49:03.701Z,98964.94
2023-01-19T23:53:20.024Z,98970.78
2023-01-19T23:57:36.238Z,98975.00
